sensor_id;sensor_type;location;lat;lon;timestamp;P1;durP1;ratioP1;P2;durP2;ratioP2
45848;SDS011;31567;54.600;9.842;2023-02-01T00:02:03;18.23;;;3.53;;
45848;SDS011;31567;54.600;9.842;2023-02-01T00:05:42;22.38;;;5.20;;
45848;SDS011;31567;54.600;9.842;2023-02-01T00:09:22;20.42;;;4.45;;
45848;SDS011;31567;54.600;9.842;2023-02-01T00:13:02;29.95;;;4.93;;
45848;SDS011;31567;54.600;9.842;2023-02-01T00:16:41;20.05;;;4.50;;
45848;SDS011;31567;54.600;9.842;2023-02-01T00:20:21;17.67;;;2.80;;
45848;SDS011;31567;54.600;9.842;2023-02-01T00:24:00;23.08;;;3.30;;
45848;SDS011;31567;54.600;9.842;2023-02-01T00:27:40;17.50;;;3.03;;
45848;SDS011;31567;54.600;9.842;2023-02-01T00:31:19;5.70;;;1.02;;
45848;SDS011;31567;54.600;9.842;2023-02-01T00:34:59;7.25;;;0.65;;
45848;SDS011;31567;54.600;9.842;2023-02-01T00:38:38;7.35;;;1.50;;
45848;SDS011;31567;54.600;9.842;2023-02-01T00:42:18;4.55;;;0.77;;
45848;SDS011;31567;54.600;9.842;2023-02-01T00:45:58;4.22;;;0.50;;
45848;SDS011;31567;54.600;9.842;2023-02-01T00:49:37;4.15;;;1.48;;
45848;SDS011;31567;54.600;9.842;2023-02-01T00:53:18;6.32;;;0.77;;
45848;SDS011;31567;54.600;9.842;2023-02-01T00:56:57;5.38;;;1.15;;
45848;SDS011;31567;54.600;9.842;2023-02-01T01:00:37;9.13;;;1.33;;
45848;SDS011;31567;54.600;9.842;2023-02-01T01:04:16;8.02;;;0.98;;
45848;SDS011;31567;54.600;9.842;2023-02-01T01:07:56;9.38;;;1.60;;
45848;SDS011;31567;54.600;9.842;2023-02-01T01:11:36;9.07;;;2.15;;
45848;SDS011;31567;54.600;9.842;2023-02-01T01:15:16;25.10;;;2.85;;
45848;SDS011;31567;54.600;9.842;2023-02-01T01:18:56;29.42;;;3.38;;
45848;SDS011;31567;54.600;9.842;2023-02-01T01:22:36;17.23;;;3.72;;
45848;SDS011;31567;54.600;9.842;2023-02-01T01:26:22;37.33;;;5.07;;
45848;SDS011;31567;54.600;9.842;2023-02-01T01:30:03;28.70;;;5.13;;
45848;SDS011;31567;54.600;9.842;2023-02-01T01:33:43;28.10;;;4.47;;
45848;SDS011;31567;54.600;9.842;2023-02-01T01:37:23;32.88;;;4.70;;
45848;SDS011;31567;54.600;9.842;2023-02-01T01:41:02;28.40;;;5.10;;
45848;SDS011;31567;54.600;9.842;2023-02-01T01:48:45;32.30;;;6.00;;
45848;SDS011;31567;54.600;9.842;2023-02-01T01:52:27;30.67;;;4.45;;
45848;SDS011;31567;54.600;9.842;2023-02-01T01:56:07;25.70;;;6.72;;
45848;SDS011;31567;54.600;9.842;2023-02-01T01:59:47;24.25;;;4.03;;
45848;SDS011;31567;54.600;9.842;2023-02-01T02:03:36;28.17;;;4.28;;
45848;SDS011;31567;54.600;9.842;2023-02-01T02:07:20;37.30;;;5.80;;
45848;SDS011;31567;54.600;9.842;2023-02-01T02:11:04;23.42;;;4.78;;
45848;SDS011;31567;54.600;9.842;2023-02-01T02:14:44;29.40;;;4.38;;
45848;SDS011;31567;54.600;9.842;2023-02-01T02:18:44;24.10;;;4.57;;
45848;SDS011;31567;54.600;9.842;2023-02-01T02:26:55;25.35;;;4.13;;
45848;SDS011;31567;54.600;9.842;2023-02-01T02:35:02;29.92;;;5.47;;
45848;SDS011;31567;54.600;9.842;2023-02-01T02:39:13;25.48;;;4.70;;
45848;SDS011;31567;54.600;9.842;2023-02-01T02:43:09;28.30;;;4.07;;
45848;SDS011;31567;54.600;9.842;2023-02-01T02:47:31;25.52;;;3.85;;
45848;SDS011;31567;54.600;9.842;2023-02-01T02:55:13;29.85;;;4.50;;
45848;SDS011;31567;54.600;9.842;2023-02-01T02:58:53;28.63;;;5.55;;
45848;SDS011;31567;54.600;9.842;2023-02-01T03:02:52;31.13;;;5.18;;
45848;SDS011;31567;54.600;9.842;2023-02-01T03:06:51;30.80;;;4.57;;
45848;SDS011;31567;54.600;9.842;2023-02-01T03:14:20;34.53;;;5.80;;
45848;SDS011;31567;54.600;9.842;2023-02-01T03:18:02;29.20;;;4.57;;
45848;SDS011;31567;54.600;9.842;2023-02-01T03:21:57;35.70;;;5.07;;
45848;SDS011;31567;54.600;9.842;2023-02-01T03:25:42;31.45;;;5.32;;
45848;SDS011;31567;54.600;9.842;2023-02-01T03:29:23;36.10;;;5.72;;
45848;SDS011;31567;54.600;9.842;2023-02-01T03:33:10;38.58;;;6.88;;
45848;SDS011;31567;54.600;9.842;2023-02-01T03:37:03;35.15;;;5.82;;
45848;SDS011;31567;54.600;9.842;2023-02-01T03:40:51;33.25;;;5.82;;
45848;SDS011;31567;54.600;9.842;2023-02-01T03:44:37;32.80;;;4.53;;
45848;SDS011;31567;54.600;9.842;2023-02-01T03:48:20;30.75;;;4.82;;
45848;SDS011;31567;54.600;9.842;2023-02-01T03:52:02;33.55;;;5.57;;
45848;SDS011;31567;54.600;9.842;2023-02-01T03:55:44;30.67;;;5.10;;
45848;SDS011;31567;54.600;9.842;2023-02-01T03:59:24;27.73;;;5.30;;
45848;SDS011;31567;54.600;9.842;2023-02-01T04:03:04;27.20;;;5.18;;
45848;SDS011;31567;54.600;9.842;2023-02-01T04:06:48;19.55;;;4.05;;
45848;SDS011;31567;54.600;9.842;2023-02-01T04:10:28;30.98;;;3.83;;
45848;SDS011;31567;54.600;9.842;2023-02-01T04:14:08;22.73;;;3.20;;
45848;SDS011;31567;54.600;9.842;2023-02-01T04:17:48;23.17;;;3.95;;
45848;SDS011;31567;54.600;9.842;2023-02-01T04:21:27;27.77;;;6.05;;
45848;SDS011;31567;54.600;9.842;2023-02-01T04:25:07;25.50;;;4.68;;
45848;SDS011;31567;54.600;9.842;2023-02-01T04:28:47;17.77;;;3.47;;
45848;SDS011;31567;54.600;9.842;2023-02-01T04:32:27;23.10;;;3.92;;
45848;SDS011;31567;54.600;9.842;2023-02-01T04:36:06;22.85;;;3.65;;
45848;SDS011;31567;54.600;9.842;2023-02-01T04:39:46;22.73;;;4.55;;
45848;SDS011;31567;54.600;9.842;2023-02-01T04:43:26;27.80;;;4.03;;
45848;SDS011;31567;54.600;9.842;2023-02-01T04:47:05;24.17;;;3.67;;
45848;SDS011;31567;54.600;9.842;2023-02-01T04:50:45;27.80;;;4.18;;
45848;SDS011;31567;54.600;9.842;2023-02-01T04:54:26;23.02;;;3.05;;
45848;SDS011;31567;54.600;9.842;2023-02-01T04:58:05;26.20;;;3.08;;
45848;SDS011;31567;54.600;9.842;2023-02-01T05:01:45;25.63;;;3.83;;
45848;SDS011;31567;54.600;9.842;2023-02-01T05:05:25;23.77;;;4.00;;
45848;SDS011;31567;54.600;9.842;2023-02-01T05:09:05;22.38;;;3.15;;
45848;SDS011;31567;54.600;9.842;2023-02-01T05:12:45;26.17;;;4.88;;
45848;SDS011;31567;54.600;9.842;2023-02-01T05:16:43;24.02;;;3.28;;
45848;SDS011;31567;54.600;9.842;2023-02-01T05:20:23;16.77;;;2.67;;
45848;SDS011;31567;54.600;9.842;2023-02-01T05:24:02;23.30;;;3.03;;
45848;SDS011;31567;54.600;9.842;2023-02-01T05:27:48;15.60;;;3.00;;
45848;SDS011;31567;54.600;9.842;2023-02-01T05:31:28;16.02;;;2.92;;
45848;SDS011;31567;54.600;9.842;2023-02-01T05:35:08;19.58;;;3.22;;
45848;SDS011;31567;54.600;9.842;2023-02-01T05:38:47;16.88;;;2.97;;
45848;SDS011;31567;54.600;9.842;2023-02-01T05:42:27;16.42;;;2.95;;
45848;SDS011;31567;54.600;9.842;2023-02-01T05:46:07;16.02;;;3.28;;
45848;SDS011;31567;54.600;9.842;2023-02-01T05:49:49;15.68;;;2.80;;
45848;SDS011;31567;54.600;9.842;2023-02-01T05:53:29;16.45;;;2.90;;
45848;SDS011;31567;54.600;9.842;2023-02-01T05:57:08;7.68;;;1.90;;
45848;SDS011;31567;54.600;9.842;2023-02-01T06:00:48;12.85;;;1.90;;
45848;SDS011;31567;54.600;9.842;2023-02-01T06:04:27;12.10;;;2.42;;
45848;SDS011;31567;54.600;9.842;2023-02-01T06:08:07;18.58;;;2.63;;
45848;SDS011;31567;54.600;9.842;2023-02-01T06:11:46;20.10;;;2.78;;
45848;SDS011;31567;54.600;9.842;2023-02-01T06:15:26;15.32;;;2.30;;
45848;SDS011;31567;54.600;9.842;2023-02-01T06:19:05;17.27;;;3.60;;
45848;SDS011;31567;54.600;9.842;2023-02-01T06:22:45;25.92;;;4.07;;
45848;SDS011;31567;54.600;9.842;2023-02-01T06:26:24;32.58;;;3.72;;
45848;SDS011;31567;54.600;9.842;2023-02-01T06:30:05;30.92;;;3.53;;
45848;SDS011;31567;54.600;9.842;2023-02-01T06:33:45;18.00;;;3.13;;
45848;SDS011;31567;54.600;9.842;2023-02-01T06:37:26;21.67;;;3.85;;
45848;SDS011;31567;54.600;9.842;2023-02-01T06:41:08;23.63;;;3.55;;
45848;SDS011;31567;54.600;9.842;2023-02-01T06:44:48;25.77;;;4.40;;
45848;SDS011;31567;54.600;9.842;2023-02-01T06:48:28;21.23;;;3.88;;
45848;SDS011;31567;54.600;9.842;2023-02-01T06:52:08;20.80;;;5.68;;
45848;SDS011;31567;54.600;9.842;2023-02-01T06:59:40;22.13;;;3.97;;
45848;SDS011;31567;54.600;9.842;2023-02-01T07:03:19;22.75;;;3.67;;
45848;SDS011;31567;54.600;9.842;2023-02-01T07:06:59;13.43;;;3.10;;
45848;SDS011;31567;54.600;9.842;2023-02-01T07:10:39;27.85;;;3.55;;
45848;SDS011;31567;54.600;9.842;2023-02-01T07:14:18;25.17;;;3.72;;
45848;SDS011;31567;54.600;9.842;2023-02-01T07:17:58;17.08;;;3.00;;
45848;SDS011;31567;54.600;9.842;2023-02-01T07:21:37;22.33;;;2.90;;
45848;SDS011;31567;54.600;9.842;2023-02-01T07:25:17;23.45;;;3.63;;
45848;SDS011;31567;54.600;9.842;2023-02-01T07:28:56;31.33;;;4.53;;
45848;SDS011;31567;54.600;9.842;2023-02-01T07:32:36;25.73;;;4.20;;
45848;SDS011;31567;54.600;9.842;2023-02-01T07:36:16;22.90;;;4.53;;
45848;SDS011;31567;54.600;9.842;2023-02-01T07:39:56;26.00;;;4.88;;
45848;SDS011;31567;54.600;9.842;2023-02-01T07:43:35;21.33;;;3.33;;
45848;SDS011;31567;54.600;9.842;2023-02-01T07:47:15;20.70;;;4.15;;
45848;SDS011;31567;54.600;9.842;2023-02-01T07:50:59;25.50;;;3.28;;
45848;SDS011;31567;54.600;9.842;2023-02-01T07:54:43;20.40;;;3.45;;
45848;SDS011;31567;54.600;9.842;2023-02-01T07:58:23;20.52;;;3.65;;
45848;SDS011;31567;54.600;9.842;2023-02-01T08:02:03;15.75;;;3.22;;
45848;SDS011;31567;54.600;9.842;2023-02-01T08:05:42;38.22;;;5.38;;
45848;SDS011;31567;54.600;9.842;2023-02-01T08:09:22;28.55;;;3.33;;
45848;SDS011;31567;54.600;9.842;2023-02-01T08:13:02;19.70;;;2.78;;
45848;SDS011;31567;54.600;9.842;2023-02-01T08:16:41;22.88;;;4.28;;
45848;SDS011;31567;54.600;9.842;2023-02-01T08:20:21;20.85;;;3.47;;
45848;SDS011;31567;54.600;9.842;2023-02-01T08:24:08;19.65;;;3.38;;
45848;SDS011;31567;54.600;9.842;2023-02-01T08:27:49;21.23;;;3.22;;
45848;SDS011;31567;54.600;9.842;2023-02-01T08:31:29;14.40;;;1.73;;
45848;SDS011;31567;54.600;9.842;2023-02-01T08:35:09;9.25;;;1.27;;
45848;SDS011;31567;54.600;9.842;2023-02-01T08:38:49;7.00;;;1.95;;
45848;SDS011;31567;54.600;9.842;2023-02-01T08:42:29;10.00;;;1.90;;
45848;SDS011;31567;54.600;9.842;2023-02-01T08:46:27;6.30;;;1.58;;
45848;SDS011;31567;54.600;9.842;2023-02-01T08:50:07;9.82;;;1.50;;
45848;SDS011;31567;54.600;9.842;2023-02-01T08:53:47;19.90;;;2.80;;
45848;SDS011;31567;54.600;9.842;2023-02-01T08:57:28;17.23;;;1.98;;
45848;SDS011;31567;54.600;9.842;2023-02-01T09:01:11;16.98;;;2.95;;
45848;SDS011;31567;54.600;9.842;2023-02-01T09:04:55;17.02;;;3.50;;
45848;SDS011;31567;54.600;9.842;2023-02-01T09:08:35;11.82;;;2.70;;
45848;SDS011;31567;54.600;9.842;2023-02-01T09:12:16;14.57;;;2.65;;
45848;SDS011;31567;54.600;9.842;2023-02-01T09:15:56;14.60;;;2.28;;
45848;SDS011;31567;54.600;9.842;2023-02-01T09:19:36;17.48;;;3.22;;
45848;SDS011;31567;54.600;9.842;2023-02-01T09:23:15;15.95;;;2.88;;
45848;SDS011;31567;54.600;9.842;2023-02-01T09:26:55;15.80;;;2.67;;
45848;SDS011;31567;54.600;9.842;2023-02-01T09:30:35;29.00;;;4.35;;
45848;SDS011;31567;54.600;9.842;2023-02-01T09:34:15;24.10;;;3.30;;
45848;SDS011;31567;54.600;9.842;2023-02-01T09:37:55;28.50;;;4.13;;
45848;SDS011;31567;54.600;9.842;2023-02-01T09:45:59;16.77;;;3.75;;
45848;SDS011;31567;54.600;9.842;2023-02-01T09:49:55;19.93;;;3.13;;
45848;SDS011;31567;54.600;9.842;2023-02-01T09:53:40;22.67;;;4.28;;
45848;SDS011;31567;54.600;9.842;2023-02-01T09:57:26;30.10;;;4.28;;
45848;SDS011;31567;54.600;9.842;2023-02-01T10:01:19;19.33;;;3.03;;
45848;SDS011;31567;54.600;9.842;2023-02-01T10:05:01;20.77;;;3.75;;
45848;SDS011;31567;54.600;9.842;2023-02-01T10:09:03;21.90;;;3.35;;
45848;SDS011;31567;54.600;9.842;2023-02-01T10:29:34;23.45;;;4.07;;
45848;SDS011;31567;54.600;9.842;2023-02-01T10:33:33;23.75;;;4.90;;
45848;SDS011;31567;54.600;9.842;2023-02-01T10:37:25;28.40;;;4.00;;
45848;SDS011;31567;54.600;9.842;2023-02-01T10:41:13;21.05;;;3.85;;
45848;SDS011;31567;54.600;9.842;2023-02-01T10:44:57;17.70;;;3.10;;
45848;SDS011;31567;54.600;9.842;2023-02-01T10:48:39;19.75;;;3.70;;
45848;SDS011;31567;54.600;9.842;2023-02-01T10:56:12;31.42;;;5.25;;
45848;SDS011;31567;54.600;9.842;2023-02-01T10:59:52;26.17;;;4.95;;
45848;SDS011;31567;54.600;9.842;2023-02-01T11:07:34;25.75;;;4.25;;
45848;SDS011;31567;54.600;9.842;2023-02-01T11:11:15;16.25;;;3.67;;
45848;SDS011;31567;54.600;9.842;2023-02-01T11:14:59;21.83;;;3.03;;
45848;SDS011;31567;54.600;9.842;2023-02-01T11:18:53;12.93;;;2.92;;
45848;SDS011;31567;54.600;9.842;2023-02-01T11:22:33;20.50;;;3.63;;
45848;SDS011;31567;54.600;9.842;2023-02-01T11:26:26;27.83;;;5.10;;
45848;SDS011;31567;54.600;9.842;2023-02-01T11:30:06;9.50;;;1.25;;
45848;SDS011;31567;54.600;9.842;2023-02-01T11:33:54;5.95;;;0.85;;
45848;SDS011;31567;54.600;9.842;2023-02-01T11:37:39;2.35;;;0.57;;
45848;SDS011;31567;54.600;9.842;2023-02-01T11:41:23;1.50;;;0.40;;
45848;SDS011;31567;54.600;9.842;2023-02-01T11:45:18;4.63;;;0.57;;
45848;SDS011;31567;54.600;9.842;2023-02-01T11:57:12;3.67;;;1.38;;
45848;SDS011;31567;54.600;9.842;2023-02-01T12:05:12;4.75;;;0.82;;
45848;SDS011;31567;54.600;9.842;2023-02-01T12:37:08;3.85;;;0.70;;
45848;SDS011;31567;54.600;9.842;2023-02-01T12:41:37;5.05;;;0.80;;
45848;SDS011;31567;54.600;9.842;2023-02-01T12:45:19;3.78;;;0.60;;
45848;SDS011;31567;54.600;9.842;2023-02-01T12:49:08;7.97;;;0.75;;
45848;SDS011;31567;54.600;9.842;2023-02-01T12:52:50;6.70;;;0.73;;
45848;SDS011;31567;54.600;9.842;2023-02-01T12:56:37;7.65;;;1.50;;
45848;SDS011;31567;54.600;9.842;2023-02-01T13:00:25;6.15;;;0.70;;
45848;SDS011;31567;54.600;9.842;2023-02-01T13:08:02;5.05;;;1.08;;
45848;SDS011;31567;54.600;9.842;2023-02-01T13:11:47;7.35;;;0.85;;
45848;SDS011;31567;54.600;9.842;2023-02-01T13:23:36;7.80;;;1.10;;
45848;SDS011;31567;54.600;9.842;2023-02-01T13:27:19;9.32;;;1.58;;
45848;SDS011;31567;54.600;9.842;2023-02-01T13:34:57;11.45;;;1.38;;
45848;SDS011;31567;54.600;9.842;2023-02-01T13:42:58;21.92;;;2.53;;
45848;SDS011;31567;54.600;9.842;2023-02-01T13:46:41;24.73;;;4.25;;
45848;SDS011;31567;54.600;9.842;2023-02-01T13:50:34;18.50;;;2.65;;
45848;SDS011;31567;54.600;9.842;2023-02-01T13:54:24;14.05;;;2.65;;
45848;SDS011;31567;54.600;9.842;2023-02-01T14:06:37;18.63;;;2.90;;
45848;SDS011;31567;54.600;9.842;2023-02-01T14:18:48;19.65;;;3.90;;
45848;SDS011;31567;54.600;9.842;2023-02-01T14:26:03;34.00;;;4.28;;
45848;SDS011;31567;54.600;9.842;2023-02-01T14:29:53;14.90;;;4.05;;
45848;SDS011;31567;54.600;9.842;2023-02-01T14:33:40;24.80;;;4.53;;
45848;SDS011;31567;54.600;9.842;2023-02-01T14:41:12;14.73;;;2.95;;
45848;SDS011;31567;54.600;9.842;2023-02-01T14:48:57;21.00;;;3.88;;
45848;SDS011;31567;54.600;9.842;2023-02-01T14:52:38;25.15;;;3.78;;
45848;SDS011;31567;54.600;9.842;2023-02-01T14:56:22;21.73;;;3.92;;
45848;SDS011;31567;54.600;9.842;2023-02-01T15:00:24;18.25;;;4.07;;
45848;SDS011;31567;54.600;9.842;2023-02-01T15:04:09;33.53;;;6.45;;
45848;SDS011;31567;54.600;9.842;2023-02-01T15:07:58;20.95;;;4.18;;
45848;SDS011;31567;54.600;9.842;2023-02-01T15:12:44;20.95;;;4.95;;
45848;SDS011;31567;54.600;9.842;2023-02-01T15:16:10;20.98;;;4.13;;
45848;SDS011;31567;54.600;9.842;2023-02-01T15:19:53;26.50;;;5.53;;
45848;SDS011;31567;54.600;9.842;2023-02-01T15:23:37;26.13;;;4.72;;
45848;SDS011;31567;54.600;9.842;2023-02-01T15:27:17;25.40;;;4.13;;
45848;SDS011;31567;54.600;9.842;2023-02-01T15:34:47;20.63;;;4.18;;
45848;SDS011;31567;54.600;9.842;2023-02-01T15:38:30;33.58;;;5.82;;
45848;SDS011;31567;54.600;9.842;2023-02-01T15:42:15;44.42;;;5.97;;
45848;SDS011;31567;54.600;9.842;2023-02-01T15:45:59;29.88;;;4.53;;
45848;SDS011;31567;54.600;9.842;2023-02-01T15:49:41;22.13;;;3.88;;
45848;SDS011;31567;54.600;9.842;2023-02-01T15:53:24;26.05;;;4.68;;
45848;SDS011;31567;54.600;9.842;2023-02-01T15:57:09;16.08;;;4.13;;
45848;SDS011;31567;54.600;9.842;2023-02-01T16:00:53;10.35;;;2.42;;
45848;SDS011;31567;54.600;9.842;2023-02-01T16:04:47;13.05;;;2.15;;
45848;SDS011;31567;54.600;9.842;2023-02-01T16:08:30;19.43;;;3.30;;
45848;SDS011;31567;54.600;9.842;2023-02-01T16:12:23;14.63;;;2.40;;
45848;SDS011;31567;54.600;9.842;2023-02-01T16:16:10;20.65;;;3.63;;
45848;SDS011;31567;54.600;9.842;2023-02-01T16:19:52;13.95;;;2.60;;
45848;SDS011;31567;54.600;9.842;2023-02-01T16:23:32;15.55;;;2.97;;
45848;SDS011;31567;54.600;9.842;2023-02-01T16:27:11;20.67;;;3.55;;
45848;SDS011;31567;54.600;9.842;2023-02-01T16:30:51;27.38;;;3.92;;
45848;SDS011;31567;54.600;9.842;2023-02-01T16:34:31;25.15;;;4.43;;
45848;SDS011;31567;54.600;9.842;2023-02-01T16:38:11;26.55;;;3.63;;
45848;SDS011;31567;54.600;9.842;2023-02-01T16:41:52;28.33;;;4.50;;
45848;SDS011;31567;54.600;9.842;2023-02-01T16:45:31;30.15;;;5.72;;
45848;SDS011;31567;54.600;9.842;2023-02-01T16:49:16;27.35;;;3.90;;
45848;SDS011;31567;54.600;9.842;2023-02-01T16:52:58;28.15;;;5.15;;
45848;SDS011;31567;54.600;9.842;2023-02-01T16:56:40;22.92;;;3.95;;
45848;SDS011;31567;54.600;9.842;2023-02-01T17:00:21;25.33;;;5.18;;
45848;SDS011;31567;54.600;9.842;2023-02-01T17:04:00;20.77;;;4.07;;
45848;SDS011;31567;54.600;9.842;2023-02-01T17:07:41;17.83;;;4.00;;
45848;SDS011;31567;54.600;9.842;2023-02-01T17:11:20;21.70;;;4.97;;
45848;SDS011;31567;54.600;9.842;2023-02-01T17:15:00;20.75;;;3.90;;
45848;SDS011;31567;54.600;9.842;2023-02-01T17:18:40;22.88;;;4.65;;
45848;SDS011;31567;54.600;9.842;2023-02-01T17:22:20;27.98;;;4.75;;
45848;SDS011;31567;54.600;9.842;2023-02-01T17:26:00;27.50;;;4.57;;
45848;SDS011;31567;54.600;9.842;2023-02-01T17:29:41;14.23;;;3.50;;
45848;SDS011;31567;54.600;9.842;2023-02-01T17:33:25;24.08;;;4.68;;
45848;SDS011;31567;54.600;9.842;2023-02-01T17:37:18;28.63;;;5.40;;
45848;SDS011;31567;54.600;9.842;2023-02-01T17:41:11;23.38;;;3.90;;
45848;SDS011;31567;54.600;9.842;2023-02-01T17:44:53;16.27;;;4.18;;
45848;SDS011;31567;54.600;9.842;2023-02-01T17:48:35;22.88;;;3.53;;
45848;SDS011;31567;54.600;9.842;2023-02-01T17:52:15;30.60;;;4.40;;
45848;SDS011;31567;54.600;9.842;2023-02-01T17:55:56;39.08;;;5.55;;
45848;SDS011;31567;54.600;9.842;2023-02-01T17:59:36;27.15;;;4.30;;
45848;SDS011;31567;54.600;9.842;2023-02-01T18:07:01;17.98;;;4.72;;
45848;SDS011;31567;54.600;9.842;2023-02-01T18:10:40;19.77;;;4.20;;
45848;SDS011;31567;54.600;9.842;2023-02-01T18:14:20;22.00;;;4.03;;
45848;SDS011;31567;54.600;9.842;2023-02-01T18:17:59;18.83;;;3.40;;
45848;SDS011;31567;54.600;9.842;2023-02-01T18:21:40;27.88;;;3.47;;
45848;SDS011;31567;54.600;9.842;2023-02-01T18:25:26;25.98;;;4.00;;
45848;SDS011;31567;54.600;9.842;2023-02-01T18:29:08;21.20;;;3.00;;
45848;SDS011;31567;54.600;9.842;2023-02-01T18:32:48;17.27;;;3.42;;
45848;SDS011;31567;54.600;9.842;2023-02-01T18:36:28;16.10;;;2.63;;
45848;SDS011;31567;54.600;9.842;2023-02-01T18:40:12;17.55;;;3.22;;
45848;SDS011;31567;54.600;9.842;2023-02-01T18:43:53;12.02;;;1.95;;
45848;SDS011;31567;54.600;9.842;2023-02-01T18:47:33;14.70;;;3.65;;
45848;SDS011;31567;54.600;9.842;2023-02-01T18:51:13;13.70;;;3.25;;
45848;SDS011;31567;54.600;9.842;2023-02-01T18:54:57;24.25;;;3.75;;
45848;SDS011;31567;54.600;9.842;2023-02-01T18:58:37;16.33;;;2.70;;
45848;SDS011;31567;54.600;9.842;2023-02-01T19:02:17;15.60;;;2.38;;
45848;SDS011;31567;54.600;9.842;2023-02-01T19:05:57;14.85;;;2.80;;
45848;SDS011;31567;54.600;9.842;2023-02-01T19:09:36;17.25;;;2.75;;
45848;SDS011;31567;54.600;9.842;2023-02-01T19:13:16;15.38;;;3.30;;
45848;SDS011;31567;54.600;9.842;2023-02-01T19:16:58;17.33;;;2.75;;
45848;SDS011;31567;54.600;9.842;2023-02-01T19:20:38;22.55;;;3.80;;
45848;SDS011;31567;54.600;9.842;2023-02-01T19:24:19;15.40;;;2.60;;
45848;SDS011;31567;54.600;9.842;2023-02-01T19:27:58;28.63;;;3.65;;
45848;SDS011;31567;54.600;9.842;2023-02-01T19:31:38;22.48;;;4.25;;
45848;SDS011;31567;54.600;9.842;2023-02-01T19:35:18;17.13;;;3.15;;
45848;SDS011;31567;54.600;9.842;2023-02-01T19:38:59;23.02;;;4.90;;
45848;SDS011;31567;54.600;9.842;2023-02-01T19:42:38;29.90;;;3.80;;
45848;SDS011;31567;54.600;9.842;2023-02-01T19:46:18;23.80;;;4.28;;
45848;SDS011;31567;54.600;9.842;2023-02-01T19:49:57;21.50;;;3.85;;
45848;SDS011;31567;54.600;9.842;2023-02-01T19:53:37;18.52;;;3.67;;
45848;SDS011;31567;54.600;9.842;2023-02-01T19:57:16;27.02;;;4.30;;
45848;SDS011;31567;54.600;9.842;2023-02-01T20:00:56;22.98;;;4.03;;
45848;SDS011;31567;54.600;9.842;2023-02-01T20:04:38;19.38;;;3.70;;
45848;SDS011;31567;54.600;9.842;2023-02-01T20:08:17;16.45;;;4.00;;
45848;SDS011;31567;54.600;9.842;2023-02-01T20:11:57;13.27;;;2.53;;
45848;SDS011;31567;54.600;9.842;2023-02-01T20:15:36;26.05;;;4.63;;
45848;SDS011;31567;54.600;9.842;2023-02-01T20:19:16;17.73;;;3.55;;
45848;SDS011;31567;54.600;9.842;2023-02-01T20:22:56;8.85;;;1.85;;
45848;SDS011;31567;54.600;9.842;2023-02-01T20:26:35;8.55;;;1.67;;
45848;SDS011;31567;54.600;9.842;2023-02-01T20:30:15;18.58;;;3.70;;
45848;SDS011;31567;54.600;9.842;2023-02-01T20:33:58;21.35;;;3.67;;
45848;SDS011;31567;54.600;9.842;2023-02-01T20:37:38;24.33;;;4.00;;
45848;SDS011;31567;54.600;9.842;2023-02-01T20:41:20;23.98;;;3.60;;
45848;SDS011;31567;54.600;9.842;2023-02-01T20:45:01;17.63;;;3.88;;
45848;SDS011;31567;54.600;9.842;2023-02-01T20:48:45;20.88;;;3.83;;
45848;SDS011;31567;54.600;9.842;2023-02-01T20:52:25;22.02;;;3.75;;
45848;SDS011;31567;54.600;9.842;2023-02-01T20:56:05;18.25;;;4.82;;
45848;SDS011;31567;54.600;9.842;2023-02-01T20:59:45;22.95;;;3.63;;
45848;SDS011;31567;54.600;9.842;2023-02-01T21:03:27;16.73;;;3.95;;
45848;SDS011;31567;54.600;9.842;2023-02-01T21:07:06;22.00;;;3.95;;
45848;SDS011;31567;54.600;9.842;2023-02-01T21:11:03;14.65;;;3.72;;
45848;SDS011;31567;54.600;9.842;2023-02-01T21:14:45;21.58;;;3.90;;
45848;SDS011;31567;54.600;9.842;2023-02-01T21:18:25;22.90;;;4.25;;
45848;SDS011;31567;54.600;9.842;2023-02-01T21:22:05;25.90;;;4.32;;
45848;SDS011;31567;54.600;9.842;2023-02-01T21:25:44;28.60;;;5.00;;
45848;SDS011;31567;54.600;9.842;2023-02-01T21:29:24;17.20;;;4.18;;
45848;SDS011;31567;54.600;9.842;2023-02-01T21:33:04;18.25;;;3.53;;
45848;SDS011;31567;54.600;9.842;2023-02-01T21:36:44;16.02;;;2.90;;
45848;SDS011;31567;54.600;9.842;2023-02-01T21:40:23;14.48;;;3.40;;
45848;SDS011;31567;54.600;9.842;2023-02-01T21:44:03;27.02;;;3.78;;
45848;SDS011;31567;54.600;9.842;2023-02-01T21:47:43;17.35;;;3.13;;
45848;SDS011;31567;54.600;9.842;2023-02-01T21:51:23;10.05;;;3.30;;
45848;SDS011;31567;54.600;9.842;2023-02-01T21:55:03;21.75;;;3.38;;
45848;SDS011;31567;54.600;9.842;2023-02-01T21:58:45;18.58;;;3.20;;
45848;SDS011;31567;54.600;9.842;2023-02-01T22:02:24;17.77;;;2.75;;
45848;SDS011;31567;54.600;9.842;2023-02-01T22:06:05;23.45;;;4.22;;
45848;SDS011;31567;54.600;9.842;2023-02-01T22:09:46;17.50;;;3.13;;
45848;SDS011;31567;54.600;9.842;2023-02-01T22:13:25;26.63;;;4.00;;
45848;SDS011;31567;54.600;9.842;2023-02-01T22:17:05;22.23;;;4.35;;
45848;SDS011;31567;54.600;9.842;2023-02-01T22:20:45;21.27;;;4.18;;
45848;SDS011;31567;54.600;9.842;2023-02-01T22:24:25;24.38;;;3.45;;
45848;SDS011;31567;54.600;9.842;2023-02-01T22:28:04;19.45;;;3.53;;
45848;SDS011;31567;54.600;9.842;2023-02-01T22:31:44;23.45;;;4.30;;
45848;SDS011;31567;54.600;9.842;2023-02-01T22:35:24;21.80;;;3.13;;
45848;SDS011;31567;54.600;9.842;2023-02-01T22:39:03;23.45;;;3.97;;
45848;SDS011;31567;54.600;9.842;2023-02-01T22:42:43;21.17;;;2.53;;
45848;SDS011;31567;54.600;9.842;2023-02-01T22:46:25;13.23;;;2.95;;
45848;SDS011;31567;54.600;9.842;2023-02-01T22:50:06;21.27;;;3.15;;
45848;SDS011;31567;54.600;9.842;2023-02-01T22:53:46;13.88;;;2.65;;
45848;SDS011;31567;54.600;9.842;2023-02-01T22:57:26;11.43;;;2.53;;
45848;SDS011;31567;54.600;9.842;2023-02-01T23:01:12;21.55;;;3.65;;
45848;SDS011;31567;54.600;9.842;2023-02-01T23:04:54;16.80;;;2.75;;
45848;SDS011;31567;54.600;9.842;2023-02-01T23:08:34;11.88;;;1.80;;
45848;SDS011;31567;54.600;9.842;2023-02-01T23:12:14;16.52;;;3.30;;
45848;SDS011;31567;54.600;9.842;2023-02-01T23:15:53;18.77;;;3.00;;
45848;SDS011;31567;54.600;9.842;2023-02-01T23:19:33;9.60;;;1.60;;
45848;SDS011;31567;54.600;9.842;2023-02-01T23:23:12;13.70;;;3.50;;
45848;SDS011;31567;54.600;9.842;2023-02-01T23:26:52;15.55;;;2.08;;
45848;SDS011;31567;54.600;9.842;2023-02-01T23:30:32;16.40;;;3.80;;
45848;SDS011;31567;54.600;9.842;2023-02-01T23:34:12;18.73;;;4.60;;
45848;SDS011;31567;54.600;9.842;2023-02-01T23:37:51;13.50;;;2.00;;
45848;SDS011;31567;54.600;9.842;2023-02-01T23:41:31;12.18;;;2.05;;
45848;SDS011;31567;54.600;9.842;2023-02-01T23:45:11;13.68;;;2.72;;
45848;SDS011;31567;54.600;9.842;2023-02-01T23:48:51;12.13;;;1.83;;
45848;SDS011;31567;54.600;9.842;2023-02-01T23:52:30;13.15;;;2.10;;
